Time;durP1;ratioP1;P1;durP2;ratioP2;P2;SDS_P1;SDS_P2;PMS_P1;PMS_P2;Temp;Humidity;BMP_temperature;BMP_pressure;BME280_temperature;BME280_humidity;BME280_pressure;Samples;Min_cycle;Max_cycle;Signal;HPM_P1;HPM_P2
2022/01/26 00:07:48;;;;;;;54.72;21.67;;;;;;;;;;4748830;30;20086;-78
2022/01/26 00:10:13;;;;;;;58.97;22.07;;;;;;;;;;4753384;30;20036;-78
2022/01/26 00:12:38;;;;;;;60.33;22.03;;;;;;;;;;4753467;30;20056;-78
2022/01/26 00:15:04;;;;;;;56.83;21.73;;;;;;;;;;4753193;30;20129;-75
2022/01/26 00:17:30;;;;;;;50.67;21.37;;;;;;;;;;4753189;30;20166;-75
2022/01/26 00:20:12;;;;;;;53.80;21.67;;;;;;;;;;4753169;30;20071;-76
2022/01/26 00:22:59;;;;;;;54.17;22.25;;;;;;;;;;4752749;30;20493;-75
2022/01/26 00:41:04;;;;;;;54.75;24.17;;;;;;;;;;4752537;30;20110;-77
2022/01/26 00:43:29;;;;;;;52.45;21.30;;;;;;;;;;4737710;30;20466;-77
2022/01/26 00:45:57;;;;;;;49.07;20.70;;;;;;;;;;4752734;30;20111;-78
2022/01/26 00:48:24;;;;;;;48.92;21.92;;;;;;;;;;4752831;30;20133;-77
2022/01/26 00:50:52;;;;;;;57.03;22.48;;;;;;;;;;4751293;30;20178;-77
2022/01/26 00:53:25;;;;;;;54.22;21.90;;;;;;;;;;4751811;30;20032;-75
2022/01/26 00:55:51;;;;;;;47.30;20.67;;;;;;;;;;4749094;30;20047;-75
2022/01/26 00:58:16;;;;;;;47.33;21.73;;;;;;;;;;4752661;30;20160;-75
2022/01/26 01:00:42;;;;;;;48.53;20.87;;;;;;;;;;4751320;30;20133;-75
2022/01/26 01:03:08;;;;;;;51.80;21.57;;;;;;;;;;4751157;30;20493;-75
2022/01/26 01:05:39;;;;;;;50.63;21.87;;;;;;;;;;4751363;30;20139;-75
2022/01/26 01:08:10;;;;;;;49.30;20.17;;;;;;;;;;4752137;30;20090;-75
2022/01/26 01:10:36;;;;;;;58.03;22.13;;;;;;;;;;4752486;30;20117;-75
2022/01/26 01:13:01;;;;;;;55.23;22.90;;;;;;;;;;4752418;30;20032;-75
2022/01/26 01:15:29;;;;;;;52.07;20.40;;;;;;;;;;4752203;30;20479;-75
2022/01/26 01:18:07;;;;;;;50.00;21.60;;;;;;;;;;4752231;30;20147;-75
2022/01/26 01:31:15;;;;;;;50.15;20.98;;;;;;;;;;4752104;30;20170;-78
2022/01/26 01:33:45;;;;;;;49.22;21.52;;;;;;;;;;4743939;30;20505;-77
2022/01/26 01:36:12;;;;;;;56.88;21.27;;;;;;;;;;4751925;30;20542;-78
2022/01/26 01:38:41;;;;;;;70.30;27.65;;;;;;;;;;4752141;30;20137;-78
2022/01/26 01:41:07;;;;;;;73.47;29.05;;;;;;;;;;4752226;30;20044;-78
2022/01/26 01:43:32;;;;;;;62.87;29.67;;;;;;;;;;4752052;30;20059;-76
2022/01/26 01:45:58;;;;;;;64.43;25.60;;;;;;;;;;4752172;30;20052;-76
2022/01/26 01:48:27;;;;;;;68.27;26.73;;;;;;;;;;4751410;30;20032;-76
2022/01/26 01:50:54;;;;;;;67.85;26.42;;;;;;;;;;4750985;30;20040;-76
2022/01/26 01:53:20;;;;;;;;;;;;;;;;;;4752683;30;20052;-76
2022/01/26 01:55:49;;;;;;;58.85;25.17;;;;;;;;;;4751930;30;20372;-76
2022/01/26 01:58:16;;;;;;;60.22;25.15;;;;;;;;;;4752088;30;20037;-76
2022/01/26 02:00:42;;;;;;;63.83;25.92;;;;;;;;;;4750499;30;20562;-79
2022/01/26 02:03:07;;;;;;;62.37;24.83;;;;;;;;;;4751476;30;20138;-79
2022/01/26 02:05:33;;;;;;;60.57;23.90;;;;;;;;;;4751989;30;20115;-78
2022/01/26 02:07:58;;;;;;;55.97;22.53;;;;;;;;;;4751852;30;20128;-78
2022/01/26 02:10:25;;;;;;;51.07;23.03;;;;;;;;;;4752157;30;20048;-78
2022/01/26 02:13:03;;;;;;;57.95;22.05;;;;;;;;;;4750805;30;20118;-76
2022/01/26 02:15:46;;;;;;;49.20;22.20;;;;;;;;;;4751425;30;20083;-76
2022/01/26 02:56:27;;;;;;;48.60;22.13;;;;;;;;;;4754436;30;20080;-75
2022/01/26 03:06:49;;;;;;;50.55;21.17;;;;;;;;;;4754096;30;20040;-75
2022/01/26 03:09:19;;;;;;;;;;;;;;;;;;4755117;30;20048;-75
2022/01/26 03:11:46;;;;;;;54.95;22.58;;;;;;;;;;4748570;30;19997;-75
2022/01/26 03:16:46;;;;;;;58.80;25.17;;;;;;;;;;4754376;30;20110;-75
2022/01/26 03:21:51;;;;;;;54.10;22.98;;;;;;;;;;4754280;30;20084;-75
2022/01/26 03:30:01;;;;;;;51.53;20.92;;;;;;;;;;4753694;30;20462;-75
2022/01/26 03:35:19;;;;;;;47.92;20.95;;;;;;;;;;4735003;30;20222;-75
2022/01/26 03:37:54;;;;;;;45.90;21.30;;;;;;;;;;4753807;30;20048;-75
2022/01/26 03:40:19;;;;;;;46.33;21.73;;;;;;;;;;4753829;30;20040;-75
2022/01/26 03:42:45;;;;;;;52.00;21.07;;;;;;;;;;4753859;30;20504;-75
2022/01/26 03:45:11;;;;;;;54.63;22.40;;;;;;;;;;4752529;30;20047;-75
2022/01/26 03:47:36;;;;;;;55.00;23.20;;;;;;;;;;4753865;30;20111;-75
2022/01/26 03:50:02;;;;;;;52.80;21.17;;;;;;;;;;4753951;30;20055;-75
2022/01/26 03:52:28;;;;;;;47.35;20.42;;;;;;;;;;4752495;30;20082;-75
2022/01/26 03:54:53;;;;;;;46.50;19.93;;;;;;;;;;4753782;30;20036;-75
2022/01/26 03:57:18;;;;;;;52.87;24.37;;;;;;;;;;4753507;30;20502;-75
2022/01/26 03:59:44;;;;;;;53.37;21.83;;;;;;;;;;4753502;30;20028;-75
2022/01/26 04:02:09;;;;;;;47.90;19.47;;;;;;;;;;4753476;30;20068;-75
2022/01/26 04:04:43;;;;;;;44.50;19.67;;;;;;;;;;4752287;30;20177;-75
2022/01/26 04:07:08;;;;;;;51.53;22.02;;;;;;;;;;4746030;30;20036;-75
2022/01/26 04:09:33;;;;;;;52.00;21.73;;;;;;;;;;4753325;30;20395;-74
2022/01/26 04:11:59;;;;;;;51.20;21.17;;;;;;;;;;4753322;30;20400;-75
2022/01/26 04:14:29;;;;;;;48.67;20.13;;;;;;;;;;4753601;30;20036;-75
2022/01/26 04:16:54;;;;;;;51.30;21.42;;;;;;;;;;4753207;30;20077;-75
2022/01/26 04:19:21;;;;;;;51.73;21.73;;;;;;;;;;4753327;30;20067;-75
2022/01/26 04:22:15;;;;;;;50.22;20.55;;;;;;;;;;4753111;30;20028;-77
2022/01/26 04:24:46;;;;;;;60.28;23.88;;;;;;;;;;4743975;30;20048;-77
2022/01/26 04:27:34;;;;;;;54.63;23.05;;;;;;;;;;4752023;30;20059;-77
2022/01/26 04:30:00;;;;;;;58.70;22.70;;;;;;;;;;4752206;30;20055;-77
2022/01/26 04:32:25;;;;;;;56.93;24.87;;;;;;;;;;4753019;30;20044;-77
2022/01/26 04:34:51;;;;;;;73.07;25.13;;;;;;;;;;4753200;30;20048;-75
2022/01/26 04:39:55;;;;;;;75.97;26.85;;;;;;;;;;4751746;30;20056;-75
2022/01/26 04:42:32;;;;;;;98.07;30.85;;;;;;;;;;4741615;30;20056;-75
2022/01/26 04:45:03;;;;;;;100.57;29.60;;;;;;;;;;4751765;30;20048;-75
2022/01/26 04:47:29;;;;;;;100.15;29.58;;;;;;;;;;4744583;30;20048;-74
2022/01/26 04:49:54;;;;;;;107.60;32.58;;;;;;;;;;4752731;30;20119;-75
2022/01/26 04:52:20;;;;;;;129.77;33.97;;;;;;;;;;4752828;30;20536;-75
2022/01/26 04:54:45;;;;;;;132.53;35.37;;;;;;;;;;4752205;30;20101;-74
2022/01/26 04:57:10;;;;;;;115.67;32.70;;;;;;;;;;4752825;30;20048;-75
2022/01/26 04:59:36;;;;;;;143.63;34.37;;;;;;;;;;4751769;30;20455;-75
2022/01/26 05:02:01;;;;;;;143.70;35.83;;;;;;;;;;4752406;30;20048;-75
2022/01/26 05:04:27;;;;;;;116.83;32.27;;;;;;;;;;4751627;30;20052;-75
2022/01/26 05:06:52;;;;;;;139.07;36.77;;;;;;;;;;4752581;30;20052;-75
2022/01/26 05:09:20;;;;;;;131.73;36.47;;;;;;;;;;4752396;30;20112;-75
2022/01/26 05:11:48;;;;;;;136.68;37.85;;;;;;;;;;4752458;30;20102;-75
2022/01/26 05:14:13;;;;;;;130.85;35.50;;;;;;;;;;4752349;30;20142;-75
2022/01/26 05:16:39;;;;;;;149.90;37.07;;;;;;;;;;4752216;30;20503;-75
2022/01/26 05:19:05;;;;;;;137.40;34.83;;;;;;;;;;4752230;30;20074;-75
2022/01/26 05:21:31;;;;;;;155.80;35.08;;;;;;;;;;4752476;30;20032;-75
2022/01/26 05:23:56;;;;;;;163.33;35.53;;;;;;;;;;4752264;30;20070;-75
2022/01/26 05:26:22;;;;;;;129.20;34.67;;;;;;;;;;4751304;30;20048;-75
2022/01/26 05:28:48;;;;;;;158.00;33.67;;;;;;;;;;4751048;30;20051;-74
2022/01/26 05:31:14;;;;;;;133.63;30.67;;;;;;;;;;4752399;30;20453;-77
2022/01/26 05:33:39;;;;;;;143.20;38.27;;;;;;;;;;4752077;30;20075;-77
2022/01/26 05:36:05;;;;;;;163.87;37.97;;;;;;;;;;4752232;30;20049;-77
2022/01/26 05:38:31;;;;;;;151.20;35.60;;;;;;;;;;4752474;30;20048;-77
2022/01/26 05:40:59;;;;;;;171.67;36.57;;;;;;;;;;4751970;30;20046;-77
2022/01/26 05:43:25;;;;;;;224.00;44.65;;;;;;;;;;4752120;30;20501;-74
2022/01/26 05:45:54;;;;;;;190.47;38.43;;;;;;;;;;4751997;30;20048;-74
2022/01/26 05:48:20;;;;;;;187.80;38.28;;;;;;;;;;4750968;30;20048;-74
2022/01/26 05:50:50;;;;;;;151.87;35.87;;;;;;;;;;4750730;30;20486;-74
2022/01/26 05:53:17;;;;;;;178.63;38.03;;;;;;;;;;4752017;30;20087;-74
2022/01/26 05:55:43;;;;;;;166.07;35.42;;;;;;;;;;4754121;30;20052;-74
2022/01/26 05:58:08;;;;;;;167.23;36.27;;;;;;;;;;4754412;30;20040;-74
2022/01/26 06:00:33;;;;;;;169.63;36.17;;;;;;;;;;4755558;30;20402;-76
2022/01/26 06:02:59;;;;;;;150.47;31.33;;;;;;;;;;4755022;30;20055;-77
2022/01/26 06:05:24;;;;;;;183.00;36.60;;;;;;;;;;4739573;30;20040;-77
2022/01/26 06:07:50;;;;;;;136.37;30.57;;;;;;;;;;4755482;30;20482;-77
2022/01/26 06:10:15;;;;;;;140.53;32.63;;;;;;;;;;4754057;30;20521;-77
2022/01/26 06:12:41;;;;;;;137.43;31.80;;;;;;;;;;4755277;30;20024;-74
2022/01/26 06:15:08;;;;;;;139.60;30.10;;;;;;;;;;4754041;30;20052;-74
2022/01/26 06:17:33;;;;;;;142.20;31.50;;;;;;;;;;4755145;30;20517;-75
2022/01/26 06:19:58;;;;;;;122.80;29.90;;;;;;;;;;4755586;30;20048;-75
2022/01/26 06:22:24;;;;;;;126.60;30.47;;;;;;;;;;4754898;30;20402;-75
2022/01/26 06:24:49;;;;;;;130.50;30.47;;;;;;;;;;4755114;30;20092;-74
2022/01/26 06:27:15;;;;;;;130.90;29.27;;;;;;;;;;4755253;30;20084;-75
2022/01/26 06:29:40;;;;;;;124.90;32.23;;;;;;;;;;4755014;30;20051;-74
2022/01/26 06:32:06;;;;;;;117.23;27.10;;;;;;;;;;4755016;30;20411;-74
2022/01/26 06:34:32;;;;;;;119.05;26.70;;;;;;;;;;4755030;30;20043;-75
2022/01/26 06:36:57;;;;;;;134.20;29.00;;;;;;;;;;4755060;30;20044;-74
2022/01/26 06:39:23;;;;;;;115.30;27.37;;;;;;;;;;4754847;30;20050;-74
2022/01/26 06:41:52;;;;;;;114.03;29.13;;;;;;;;;;4754790;30;20545;-75
2022/01/26 06:44:49;;;;;;;106.50;27.38;;;;;;;;;;4754949;30;20048;-74
2022/01/26 06:49:35;;;;;;;106.68;28.40;;;;;;;;;;4754659;30;20044;-74
2022/01/26 06:52:01;;;;;;;121.23;27.47;;;;;;;;;;4754642;30;20049;-74
2022/01/26 06:54:26;;;;;;;109.67;27.50;;;;;;;;;;4754994;30;20059;-74
2022/01/26 06:56:52;;;;;;;102.50;27.47;;;;;;;;;;4753459;30;20059;-74
2022/01/26 06:59:18;;;;;;;121.47;27.60;;;;;;;;;;4753433;30;20063;-74
2022/01/26 07:01:43;;;;;;;97.13;25.80;;;;;;;;;;4753358;30;20482;-74
2022/01/26 07:04:09;;;;;;;86.77;21.70;;;;;;;;;;4754547;30;20056;-74
2022/01/26 07:06:34;;;;;;;99.00;23.03;;;;;;;;;;4754002;30;20503;-74
2022/01/26 07:09:00;;;;;;;91.53;24.47;;;;;;;;;;4754424;30;20037;-74
2022/01/26 07:11:25;;;;;;;83.10;21.93;;;;;;;;;;4754606;30;20051;-74
2022/01/26 07:13:53;;;;;;;81.37;21.90;;;;;;;;;;4754413;30;20415;-74
2022/01/26 07:21:47;;;;;;;93.68;24.13;;;;;;;;;;4753237;30;20066;-74
2022/01/26 07:24:12;;;;;;;117.13;26.47;;;;;;;;;;4754013;30;20043;-74
2022/01/26 07:26:38;;;;;;;104.00;25.83;;;;;;;;;;4754143;30;20040;-74
2022/01/26 07:29:08;;;;;;;82.00;22.07;;;;;;;;;;4752984;30;20051;-74
2022/01/26 07:31:35;;;;;;;107.95;24.45;;;;;;;;;;4753077;30;20508;-74
2022/01/26 07:34:01;;;;;;;87.75;20.20;;;;;;;;;;4753964;30;20051;-74
2022/01/26 07:36:26;;;;;;;92.03;23.60;;;;;;;;;;4754082;30;20028;-74
2022/01/26 07:38:54;;;;;;;79.73;21.83;;;;;;;;;;4753912;30;20055;-74
2022/01/26 07:41:20;;;;;;;90.53;22.77;;;;;;;;;;4752805;30;20060;-74
2022/01/26 07:43:46;;;;;;;93.63;23.23;;;;;;;;;;4752692;30;20051;-74
2022/01/26 07:46:12;;;;;;;107.53;24.57;;;;;;;;;;4753986;30;20105;-74
2022/01/26 07:48:38;;;;;;;106.15;24.80;;;;;;;;;;4753584;30;20056;-74
2022/01/26 07:51:04;;;;;;;95.20;22.27;;;;;;;;;;4751555;30;20510;-74
2022/01/26 07:53:29;;;;;;;91.47;22.23;;;;;;;;;;4746551;30;20075;-74
2022/01/26 07:55:56;;;;;;;95.83;24.47;;;;;;;;;;4753702;30;20986;-74
2022/01/26 07:58:21;;;;;;;;;;;;;;;;;;4745606;30;20049;-74
2022/01/26 08:00:47;;;;;;;87.18;21.73;;;;;;;;;;4753646;30;20000;-77
2022/01/26 08:03:12;;;;;;;89.93;23.13;;;;;;;;;;4753177;30;20395;-77
2022/01/26 08:05:38;;;;;;;84.67;21.30;;;;;;;;;;4752228;30;20123;-76
2022/01/26 08:08:04;;;;;;;89.20;22.63;;;;;;;;;;4747368;30;20162;-77
2022/01/26 08:10:30;;;;;;;91.97;22.10;;;;;;;;;;4747518;30;20051;-76
2022/01/26 08:12:55;;;;;;;102.50;26.00;;;;;;;;;;4746692;30;20035;-74
2022/01/26 08:15:21;;;;;;;98.87;22.83;;;;;;;;;;4749134;30;20525;-74
2022/01/26 08:17:46;;;;;;;85.47;24.07;;;;;;;;;;4742152;30;20056;-73
2022/01/26 08:20:12;;;;;;;91.47;22.33;;;;;;;;;;4750523;30;20040;-74
2022/01/26 08:22:38;;;;;;;95.17;22.43;;;;;;;;;;4753341;30;20044;-74
2022/01/26 08:25:04;;;;;;;;;;;;;;;;;;4751590;30;20493;-74
2022/01/26 08:27:37;;;;;;;85.07;23.60;;;;;;;;;;4753306;30;19964;-74
2022/01/26 08:30:08;;;;;;;81.47;22.27;;;;;;;;;;4753035;30;20051;-74
2022/01/26 08:32:34;;;;;;;86.32;23.23;;;;;;;;;;4753114;30;20082;-76
2022/01/26 08:35:00;;;;;;;89.90;23.43;;;;;;;;;;4752653;30;20090;-77
2022/01/26 08:37:25;;;;;;;90.63;23.43;;;;;;;;;;4749780;30;20033;-76
2022/01/26 08:39:50;;;;;;;93.77;24.33;;;;;;;;;;4743868;30;20502;-77
2022/01/26 08:42:16;;;;;;;116.00;25.83;;;;;;;;;;4745215;30;20070;-74
2022/01/26 08:44:41;;;;;;;100.60;25.13;;;;;;;;;;4749236;30;20103;-74
2022/01/26 08:47:07;;;;;;;73.30;22.53;;;;;;;;;;4751791;30;20044;-74
2022/01/26 08:49:33;;;;;;;80.30;23.13;;;;;;;;;;4751704;30;20047;-74
2022/01/26 08:51:58;;;;;;;104.18;27.05;;;;;;;;;;4751322;30;20031;-74
2022/01/26 08:54:24;;;;;;;117.53;27.33;;;;;;;;;;4752662;30;20044;-75
2022/01/26 08:56:50;;;;;;;81.80;21.80;;;;;;;;;;4747143;30;20380;-75
2022/01/26 08:59:17;;;;;;;104.07;25.57;;;;;;;;;;4749587;30;20024;-74
2022/01/26 09:01:42;;;;;;;74.88;22.42;;;;;;;;;;4752429;30;20549;-75
2022/01/26 09:04:08;;;;;;;58.63;19.27;;;;;;;;;;4749846;30;20063;-74
2022/01/26 09:06:33;;;;;;;87.30;24.33;;;;;;;;;;4742362;30;20044;-77
2022/01/26 09:09:05;;;;;;;66.77;22.07;;;;;;;;;;4750939;30;20048;-76
2022/01/26 09:11:31;;;;;;;52.40;19.13;;;;;;;;;;4749168;30;20044;-77
2022/01/26 09:13:58;;;;;;;38.70;17.93;;;;;;;;;;4751034;30;20117;-77
2022/01/26 09:16:25;;;;;;;39.90;18.27;;;;;;;;;;4751959;30;20044;-77
2022/01/26 09:18:57;;;;;;;;;;;;;;;;;;4740915;30;20040;-77
2022/01/26 09:21:24;;;;;;;35.45;16.45;;;;;;;;;;4746521;30;19922;-77
2022/01/26 09:23:50;;;;;;;33.65;16.60;;;;;;;;;;4751188;30;20048;-77
2022/01/26 09:26:15;;;;;;;32.23;16.47;;;;;;;;;;4751975;30;20403;-77
2022/01/26 09:28:40;;;;;;;38.67;19.27;;;;;;;;;;4751154;30;20040;-77
2022/01/26 09:31:06;;;;;;;36.13;18.10;;;;;;;;;;4751690;30;20068;-77
2022/01/26 09:33:32;;;;;;;32.57;17.37;;;;;;;;;;4750239;30;20119;-77
2022/01/26 09:35:57;;;;;;;30.70;15.63;;;;;;;;;;4751639;30;20109;-77
2022/01/26 09:38:23;;;;;;;29.13;14.93;;;;;;;;;;4750128;30;20044;-77
2022/01/26 09:40:49;;;;;;;26.17;15.80;;;;;;;;;;4751643;30;20461;-77
2022/01/26 09:43:16;;;;;;;28.45;14.48;;;;;;;;;;4750097;30;20024;-77
2022/01/26 09:45:42;;;;;;;30.85;15.90;;;;;;;;;;4751246;30;20514;-77
2022/01/26 09:48:08;;;;;;;26.20;14.60;;;;;;;;;;4749844;30;20052;-77
2022/01/26 09:50:34;;;;;;;29.08;15.85;;;;;;;;;;4750523;30;20101;-77
2022/01/26 09:53:00;;;;;;;24.67;13.60;;;;;;;;;;4750316;30;20123;-77
2022/01/26 09:55:26;;;;;;;28.80;15.20;;;;;;;;;;4751179;30;20163;-77
2022/01/26 09:57:58;;;;;;;29.17;14.07;;;;;;;;;;4750390;30;20051;-77
2022/01/26 10:00:24;;;;;;;29.70;14.30;;;;;;;;;;4745261;30;20048;-78
2022/01/26 10:02:57;;;;;;;22.52;11.40;;;;;;;;;;4742002;30;20107;-78
2022/01/26 10:05:24;;;;;;;21.92;11.38;;;;;;;;;;4745288;30;20083;-77
2022/01/26 10:08:00;;;;;;;26.88;13.50;;;;;;;;;;4745063;30;20048;-77
2022/01/26 10:15:26;;;;;;;27.40;13.02;;;;;;;;;;4751076;30;20521;-77
2022/01/26 10:18:32;;;;;;;26.55;14.27;;;;;;;;;;4746510;30;20486;-77
2022/01/26 10:21:01;;;;;;;27.38;14.70;;;;;;;;;;4747787;30;20083;-77
2022/01/26 10:23:29;;;;;;;30.38;15.10;;;;;;;;;;4737616;30;20399;-77
2022/01/26 10:26:13;;;;;;;27.92;16.52;;;;;;;;;;4748453;30;20052;-77
2022/01/26 10:28:54;;;;;;;32.10;15.13;;;;;;;;;;4738690;30;20049;-77
2022/01/26 10:31:22;;;;;;;31.60;15.60;;;;;;;;;;4747172;30;20044;-77
2022/01/26 10:33:57;;;;;;;30.42;16.80;;;;;;;;;;4745578;30;20044;-77
2022/01/26 10:36:22;;;;;;;28.60;15.38;;;;;;;;;;4747731;30;20078;-77
2022/01/26 10:39:07;;;;;;;44.07;17.00;;;;;;;;;;4746689;30;20048;-77
2022/01/26 10:41:33;;;;;;;32.80;15.75;;;;;;;;;;4748538;30;20072;-77
2022/01/26 10:44:00;;;;;;;34.15;16.42;;;;;;;;;;4749992;30;20047;-77
2022/01/26 10:46:29;;;;;;;31.48;15.32;;;;;;;;;;4750826;30;20043;-77
2022/01/26 10:49:09;;;;;;;28.48;15.02;;;;;;;;;;4749593;30;20413;-77
2022/01/26 10:51:52;;;;;;;31.40;15.70;;;;;;;;;;4750362;30;20175;-78
2022/01/26 10:54:22;;;;;;;32.53;16.55;;;;;;;;;;4749746;30;20056;-77
2022/01/26 10:56:49;;;;;;;33.67;16.35;;;;;;;;;;4750357;30;20490;-77
2022/01/26 10:59:15;;;;;;;36.72;18.10;;;;;;;;;;4749675;30;20490;-77
2022/01/26 11:01:40;;;;;;;37.73;17.93;;;;;;;;;;4750907;30;20094;-77
2022/01/26 11:04:07;;;;;;;37.17;16.13;;;;;;;;;;4750306;30;20271;-77
2022/01/26 11:06:32;;;;;;;31.20;16.08;;;;;;;;;;4750288;30;20540;-77
2022/01/26 11:09:02;;;;;;;37.93;17.60;;;;;;;;;;4750586;30;20052;-77
2022/01/26 11:11:28;;;;;;;36.80;17.63;;;;;;;;;;4738632;30;20047;-77
2022/01/26 11:13:53;;;;;;;47.20;23.07;;;;;;;;;;4750697;30;20052;-77
2022/01/26 11:16:19;;;;;;;44.67;24.03;;;;;;;;;;4750052;30;20029;-77
2022/01/26 11:18:51;;;;;;;57.27;27.73;;;;;;;;;;4749868;30;20129;-77
2022/01/26 11:21:30;;;;;;;51.75;26.45;;;;;;;;;;4749933;30;20047;-77
2022/01/26 11:24:24;;;;;;;44.10;21.58;;;;;;;;;;4747810;30;20823;-77
2022/01/26 11:27:02;;;;;;;38.10;20.25;;;;;;;;;;4750190;30;20043;-77
2022/01/26 11:29:33;;;;;;;39.67;21.27;;;;;;;;;;4749803;30;20072;-77
2022/01/26 11:32:10;;;;;;;40.85;20.02;;;;;;;;;;4750243;30;20091;-77
2022/01/26 11:34:36;;;;;;;33.35;17.30;;;;;;;;;;4748255;30;20453;-77
2022/01/26 11:37:03;;;;;;;38.67;18.13;;;;;;;;;;4749844;30;20040;-77
2022/01/26 11:45:04;;;;;;;39.72;18.33;;;;;;;;;;4750104;30;20074;-77
2022/01/26 11:45:21;;;;;;;34.67;18.02;;;;;;;;;;4741588;30;20546;-77
2022/01/26 11:48:10;;;;;;;32.45;17.42;;;;;;;;;;4748947;30;20039;-78
2022/01/26 11:50:42;;;;;;;30.33;14.02;;;;;;;;;;4750796;30;20059;-77
2022/01/26 11:53:15;;;;;;;29.80;16.20;;;;;;;;;;4746083;30;20052;-77
2022/01/26 11:55:45;;;;;;;25.25;13.48;;;;;;;;;;4750029;30;20083;-77
2022/01/26 11:58:12;;;;;;;21.67;12.80;;;;;;;;;;4739798;30;20044;-77
2022/01/26 12:00:44;;;;;;;;;;;;;;;;;;4751088;30;20048;-77
2022/01/26 12:03:27;;;;;;;24.92;11.63;;;;;;;;;;4749738;30;19929;-77
2022/01/26 12:05:56;;;;;;;33.40;14.25;;;;;;;;;;4741136;30;20470;-77
2022/01/26 12:08:38;;;;;;;25.17;11.55;;;;;;;;;;4748650;30;20111;-77
2022/01/26 12:11:07;;;;;;;22.90;10.98;;;;;;;;;;4748682;30;20052;-78
2022/01/26 12:13:36;;;;;;;27.23;10.73;;;;;;;;;;4748343;30;20059;-77
2022/01/26 12:16:11;;;;;;;29.65;11.18;;;;;;;;;;4749270;30;20052;-77
2022/01/26 12:18:46;;;;;;;21.45;10.68;;;;;;;;;;4748984;30;20123;-77
2022/01/26 12:38:17;;;;;;;20.42;9.55;;;;;;;;;;4748150;30;20068;-77
2022/01/26 12:43:34;;;;;;;18.70;9.85;;;;;;;;;;4748457;30;20138;-78
2022/01/26 12:46:00;;;;;;;23.63;10.70;;;;;;;;;;4748699;30;20433;-78
2022/01/26 12:48:26;;;;;;;21.60;10.40;;;;;;;;;;4747855;30;20048;-77
2022/01/26 12:50:53;;;;;;;20.07;10.27;;;;;;;;;;4748810;30;20047;-77
2022/01/26 12:53:25;;;;;;;19.88;9.68;;;;;;;;;;4747381;30;20512;-77
2022/01/26 12:55:58;;;;;;;16.52;9.18;;;;;;;;;;4748018;30;20052;-77
2022/01/26 12:58:29;;;;;;;25.58;9.98;;;;;;;;;;4748804;30;20046;-77
2022/01/26 13:00:59;;;;;;;18.88;9.73;;;;;;;;;;4747845;30;20079;-77
2022/01/26 13:03:32;;;;;;;16.38;10.00;;;;;;;;;;4747683;30;20060;-78
2022/01/26 13:06:31;;;;;;;19.95;9.27;;;;;;;;;;4747646;30;20044;-77
2022/01/26 13:08:59;;;;;;;19.77;9.88;;;;;;;;;;4744576;30;20491;-77
2022/01/26 13:11:33;;;;;;;17.30;8.48;;;;;;;;;;4747538;30;20089;-77
2022/01/26 13:14:21;;;;;;;19.10;9.90;;;;;;;;;;4742834;30;20039;-77
2022/01/26 13:17:04;;;;;;;18.10;10.23;;;;;;;;;;4734600;30;20045;-77
2022/01/26 13:19:44;;;;;;;20.77;10.82;;;;;;;;;;4747573;30;20033;-77
2022/01/26 13:30:30;;;;;;;18.23;10.75;;;;;;;;;;4734264;30;20121;-78
2022/01/26 13:40:57;;;;;;;21.08;11.30;;;;;;;;;;4720210;30;20044;-77
2022/01/26 13:57:25;;;;;;;29.20;14.40;;;;;;;;;;4745150;30;20115;-78
2022/01/26 13:59:54;;;;;;;29.40;13.68;;;;;;;;;;4739195;30;20499;-78
2022/01/26 14:02:19;;;;;;;43.72;18.58;;;;;;;;;;4736835;30;20056;-78
2022/01/26 14:04:44;;;;;;;31.10;15.27;;;;;;;;;;4745053;30;20394;-77
2022/01/26 14:07:10;;;;;;;31.47;13.80;;;;;;;;;;4742869;30;20069;-78
2022/01/26 14:09:37;;;;;;;19.63;11.37;;;;;;;;;;4744673;30;20118;-78
2022/01/26 14:12:03;;;;;;;21.83;12.80;;;;;;;;;;4738049;30;20106;-78
2022/01/26 14:14:33;;;;;;;29.08;13.70;;;;;;;;;;4743710;30;20497;-77
2022/01/26 14:17:01;;;;;;;23.77;11.63;;;;;;;;;;4747516;30;20040;-78
2022/01/26 14:27:42;;;;;;;27.45;13.48;;;;;;;;;;4750527;30;20538;-78
2022/01/26 14:35:27;;;;;;;22.23;11.73;;;;;;;;;;4751400;30;20048;-78
2022/01/26 14:51:56;;;;;;;24.50;11.82;;;;;;;;;;4749152;30;20079;-77
2022/01/26 15:40:24;;;;;;;27.70;12.52;;;;;;;;;;4750106;30;20071;-78
2022/01/26 16:06:07;;;;;;;24.73;12.05;;;;;;;;;;4749207;30;20066;-78
2022/01/26 16:26:16;;;;;;;36.13;17.35;;;;;;;;;;4750048;30;20422;-78
2022/01/26 17:02:49;;;;;;;39.50;19.25;;;;;;;;;;4747418;30;20205;-77
2022/01/26 17:55:14;;;;;;;23.98;11.70;;;;;;;;;;4745727;30;20520;-77
2022/01/26 18:13:10;;;;;;;29.10;14.63;;;;;;;;;;4744389;30;20510;-77
2022/01/26 18:15:51;;;;;;;24.35;13.13;;;;;;;;;;4750300;30;20051;-76
2022/01/26 18:31:59;;;;;;;39.00;19.70;;;;;;;;;;4742582;30;21050;-77
2022/01/26 18:40:47;;;;;;;39.35;18.80;;;;;;;;;;4751460;30;20039;-77
2022/01/26 18:50:49;;;;;;;41.30;21.85;;;;;;;;;;4750385;30;20078;-78
2022/01/26 18:53:15;;;;;;;40.63;19.37;;;;;;;;;;4750557;30;20068;-77
2022/01/26 18:55:41;;;;;;;38.37;18.57;;;;;;;;;;4751449;30;20111;-77
2022/01/26 18:58:07;;;;;;;34.33;17.67;;;;;;;;;;4745286;30;20453;-77
2022/01/26 19:00:32;;;;;;;39.13;19.73;;;;;;;;;;4751403;30;20054;-77
2022/01/26 19:02:59;;;;;;;38.03;19.83;;;;;;;;;;4747937;30;20095;-76
2022/01/26 19:05:28;;;;;;;33.45;17.05;;;;;;;;;;4750837;30;20489;-77
2022/01/26 19:07:55;;;;;;;33.72;16.55;;;;;;;;;;4749943;30;20510;-77
2022/01/26 19:10:21;;;;;;;37.22;16.73;;;;;;;;;;4751141;30;20085;-77
2022/01/26 19:12:46;;;;;;;33.13;16.00;;;;;;;;;;4748708;30;20044;-77
2022/01/26 19:15:16;;;;;;;32.97;14.47;;;;;;;;;;4750120;30;20089;-77
2022/01/26 19:17:51;;;;;;;28.23;13.75;;;;;;;;;;4751411;30;20417;-77
2022/01/26 19:25:18;;;;;;;38.05;17.02;;;;;;;;;;4749965;30;20048;-77
2022/01/26 19:28:47;;;;;;;44.08;18.33;;;;;;;;;;4750101;30;20048;-77
2022/01/26 19:40:31;;;;;;;29.67;14.95;;;;;;;;;;4749425;30;20058;-77
2022/01/26 19:52:12;;;;;;;27.08;14.30;;;;;;;;;;4748886;30;20117;-77
2022/01/26 19:54:43;;;;;;;25.65;13.60;;;;;;;;;;4749206;30;20126;-77
2022/01/26 19:57:08;;;;;;;28.65;14.20;;;;;;;;;;4750259;30;20493;-77
2022/01/26 19:59:34;;;;;;;24.73;11.50;;;;;;;;;;4749312;30;20038;-78
2022/01/26 20:02:00;;;;;;;30.35;13.90;;;;;;;;;;4749872;30;20493;-78
2022/01/26 20:04:28;;;;;;;26.73;12.70;;;;;;;;;;4740308;30;20047;-77
2022/01/26 20:06:54;;;;;;;37.58;18.08;;;;;;;;;;4741965;30;20506;-77
2022/01/26 20:09:27;;;;;;;35.90;16.97;;;;;;;;;;4746014;30;20040;-77
2022/01/26 20:11:59;;;;;;;24.77;13.10;;;;;;;;;;4749240;30;20115;-77
2022/01/26 20:14:32;;;;;;;18.25;8.70;;;;;;;;;;4748240;30;20040;-77
2022/01/26 20:17:06;;;;;;;19.77;10.00;;;;;;;;;;4748998;30;20082;-77
2022/01/26 20:19:32;;;;;;;21.95;9.80;;;;;;;;;;4748783;30;20036;-77
2022/01/26 20:21:58;;;;;;;21.80;10.77;;;;;;;;;;4748844;30;20395;-77
2022/01/26 20:24:23;;;;;;;30.03;11.07;;;;;;;;;;4749787;30;20047;-77
2022/01/26 20:26:52;;;;;;;23.23;8.50;;;;;;;;;;4750612;30;20107;-76
2022/01/26 20:29:18;;;;;;;20.17;11.65;;;;;;;;;;4745616;30;20064;-77
2022/01/26 20:31:43;;;;;;;20.48;11.20;;;;;;;;;;4739534;30;20048;-77
2022/01/26 20:34:10;;;;;;;21.43;11.23;;;;;;;;;;4747273;30;20462;-77
2022/01/26 20:36:35;;;;;;;22.80;10.90;;;;;;;;;;4748846;30;20054;-77
2022/01/26 20:39:02;;;;;;;28.30;11.23;;;;;;;;;;4749756;30;20040;-77
2022/01/26 20:41:28;;;;;;;26.95;10.60;;;;;;;;;;4750644;30;20093;-77
2022/01/26 20:43:53;;;;;;;20.30;10.33;;;;;;;;;;4750153;30;20048;-77
2022/01/26 20:46:19;;;;;;;22.13;12.77;;;;;;;;;;4750859;30;20028;-78
2022/01/26 20:48:45;;;;;;;23.13;10.70;;;;;;;;;;4751569;30;20044;-77
2022/01/26 20:51:10;;;;;;;26.40;10.37;;;;;;;;;;4751873;30;20040;-77
2022/01/26 20:53:36;;;;;;;22.77;11.80;;;;;;;;;;4744217;30;20383;-77
2022/01/26 20:56:02;;;;;;;34.10;12.20;;;;;;;;;;4743433;30;20072;-74
2022/01/26 20:58:27;;;;;;;26.60;12.40;;;;;;;;;;4743773;30;20044;-75
2022/01/26 21:00:53;;;;;;;28.27;12.50;;;;;;;;;;4746565;30;20050;-77
2022/01/26 21:03:21;;;;;;;31.00;13.23;;;;;;;;;;4750435;30;20121;-77
2022/01/26 21:05:47;;;;;;;33.35;13.13;;;;;;;;;;4745240;30;20097;-77
2022/01/26 21:08:14;;;;;;;29.20;12.17;;;;;;;;;;4757399;30;20039;-77
2022/01/26 21:10:39;;;;;;;32.63;14.05;;;;;;;;;;4749975;30;20115;-78
2022/01/26 21:13:06;;;;;;;31.60;13.63;;;;;;;;;;4741783;30;20127;-77
2022/01/26 21:15:32;;;;;;;31.10;12.85;;;;;;;;;;4743812;30;20042;-77
2022/01/26 21:17:57;;;;;;;26.73;13.47;;;;;;;;;;4751554;30;20111;-77
2022/01/26 21:20:22;;;;;;;32.23;11.93;;;;;;;;;;4748496;30;20457;-77
2022/01/26 21:22:49;;;;;;;26.17;9.57;;;;;;;;;;4751380;30;20051;-77
2022/01/26 21:25:15;;;;;;;19.67;10.60;;;;;;;;;;4749936;30;20063;-77
2022/01/26 21:27:41;;;;;;;24.45;11.23;;;;;;;;;;4752173;30;20486;-77
2022/01/26 21:30:07;;;;;;;22.97;9.47;;;;;;;;;;4735886;30;20054;-77
2022/01/26 21:32:33;;;;;;;21.20;8.43;;;;;;;;;;4744780;30;20036;-77